sensor_id;sensor_type;location;lat;lon;timestamp;temperature;humidity
41904;DHT22;27586;51.124;4.182;2023-08-01T00:00:02;16.80;99.90
41904;DHT22;27586;51.124;4.182;2023-08-01T00:02:29;16.80;99.90
41904;DHT22;27586;51.124;4.182;2023-08-01T00:04:54;16.70;99.90
41904;DHT22;27586;51.124;4.182;2023-08-01T00:07:20;16.70;99.90
41904;DHT22;27586;51.124;4.182;2023-08-01T00:09:46;16.70;99.90
41904;DHT22;27586;51.124;4.182;2023-08-01T00:12:11;16.70;99.90
41904;DHT22;27586;51.124;4.182;2023-08-01T00:14:37;16.70;99.90
41904;DHT22;27586;51.124;4.182;2023-08-01T00:17:03;16.70;99.90
41904;DHT22;27586;51.124;4.182;2023-08-01T00:19:29;16.70;99.90
41904;DHT22;27586;51.124;4.182;2023-08-01T00:21:54;16.60;99.90
41904;DHT22;27586;51.124;4.182;2023-08-01T00:24:20;16.60;99.90
41904;DHT22;27586;51.124;4.182;2023-08-01T00:26:45;16.60;99.90
41904;DHT22;27586;51.124;4.182;2023-08-01T00:29:12;16.50;99.90
41904;DHT22;27586;51.124;4.182;2023-08-01T00:31:37;16.60;99.90
41904;DHT22;27586;51.124;4.182;2023-08-01T00:34:03;16.50;99.90
41904;DHT22;27586;51.124;4.182;2023-08-01T00:36:29;16.50;99.90
41904;DHT22;27586;51.124;4.182;2023-08-01T00:38:54;16.60;99.90
41904;DHT22;27586;51.124;4.182;2023-08-01T00:41:20;16.60;99.90
41904;DHT22;27586;51.124;4.182;2023-08-01T00:43:45;16.60;99.90
41904;DHT22;27586;51.124;4.182;2023-08-01T00:46:11;16.70;99.90
41904;DHT22;27586;51.124;4.182;2023-08-01T00:48:37;16.60;99.90
41904;DHT22;27586;51.124;4.182;2023-08-01T00:51:07;16.60;99.90
41904;DHT22;27586;51.124;4.182;2023-08-01T00:53:34;16.70;99.90
41904;DHT22;27586;51.124;4.182;2023-08-01T00:56:00;16.70;99.90
41904;DHT22;27586;51.124;4.182;2023-08-01T00:58:26;16.70;99.90
41904;DHT22;27586;51.124;4.182;2023-08-01T01:00:52;16.70;99.90
41904;DHT22;27586;51.124;4.182;2023-08-01T01:03:18;16.70;99.90
41904;DHT22;27586;51.124;4.182;2023-08-01T01:08:41;16.70;99.90
41904;DHT22;27586;51.124;4.182;2023-08-01T01:11:07;16.70;99.90
41904;DHT22;27586;51.124;4.182;2023-08-01T01:13:33;16.70;99.90
41904;DHT22;27586;51.124;4.182;2023-08-01T01:15:59;16.60;99.90
41904;DHT22;27586;51.124;4.182;2023-08-01T01:18:24;16.70;99.90
41904;DHT22;27586;51.124;4.182;2023-08-01T01:20:50;16.70;99.90
41904;DHT22;27586;51.124;4.182;2023-08-01T01:23:16;16.70;99.90
41904;DHT22;27586;51.124;4.182;2023-08-01T01:25:42;16.80;99.90
41904;DHT22;27586;51.124;4.182;2023-08-01T01:28:08;16.80;99.90
41904;DHT22;27586;51.124;4.182;2023-08-01T01:30:35;16.70;99.90
41904;DHT22;27586;51.124;4.182;2023-08-01T01:33:02;16.70;99.90
41904;DHT22;27586;51.124;4.182;2023-08-01T01:35:29;16.70;99.90
41904;DHT22;27586;51.124;4.182;2023-08-01T01:37:54;16.70;99.90
41904;DHT22;27586;51.124;4.182;2023-08-01T01:40:20;16.70;99.90
41904;DHT22;27586;51.124;4.182;2023-08-01T01:42:46;16.70;99.90
41904;DHT22;27586;51.124;4.182;2023-08-01T01:45:11;16.70;99.90
41904;DHT22;27586;51.124;4.182;2023-08-01T01:47:37;16.60;99.90
41904;DHT22;27586;51.124;4.182;2023-08-01T01:50:03;16.70;99.90
41904;DHT22;27586;51.124;4.182;2023-08-01T01:52:30;16.70;99.90
41904;DHT22;27586;51.124;4.182;2023-08-01T01:54:56;16.60;99.90
41904;DHT22;27586;51.124;4.182;2023-08-01T01:57:22;16.60;99.90
41904;DHT22;27586;51.124;4.182;2023-08-01T01:59:47;16.60;99.90
41904;DHT22;27586;51.124;4.182;2023-08-01T02:02:13;16.50;99.90
41904;DHT22;27586;51.124;4.182;2023-08-01T02:04:39;16.50;99.90
41904;DHT22;27586;51.124;4.182;2023-08-01T02:07:05;16.60;99.90
41904;DHT22;27586;51.124;4.182;2023-08-01T02:09:31;16.50;99.90
41904;DHT22;27586;51.124;4.182;2023-08-01T02:11:56;16.50;99.90
41904;DHT22;27586;51.124;4.182;2023-08-01T02:14:22;16.40;99.90
41904;DHT22;27586;51.124;4.182;2023-08-01T02:16:48;16.50;99.90
41904;DHT22;27586;51.124;4.182;2023-08-01T02:19:13;16.40;99.90
41904;DHT22;27586;51.124;4.182;2023-08-01T02:21:39;16.40;99.90
41904;DHT22;27586;51.124;4.182;2023-08-01T02:24:04;16.40;99.90
41904;DHT22;27586;51.124;4.182;2023-08-01T02:26:30;16.40;99.90
41904;DHT22;27586;51.124;4.182;2023-08-01T02:28:56;16.40;99.90
41904;DHT22;27586;51.124;4.182;2023-08-01T02:31:22;16.40;99.90
41904;DHT22;27586;51.124;4.182;2023-08-01T02:33:47;16.40;99.90
41904;DHT22;27586;51.124;4.182;2023-08-01T02:36:13;16.40;99.90
41904;DHT22;27586;51.124;4.182;2023-08-01T02:38:39;16.40;99.90
41904;DHT22;27586;51.124;4.182;2023-08-01T02:41:05;16.40;99.90
41904;DHT22;27586;51.124;4.182;2023-08-01T02:43:30;16.30;99.90
41904;DHT22;27586;51.124;4.182;2023-08-01T02:45:56;16.40;99.90
41904;DHT22;27586;51.124;4.182;2023-08-01T02:48:21;16.40;99.90
41904;DHT22;27586;51.124;4.182;2023-08-01T02:50:47;16.30;99.90
41904;DHT22;27586;51.124;4.182;2023-08-01T02:53:13;16.40;99.90
41904;DHT22;27586;51.124;4.182;2023-08-01T02:55:39;16.40;99.90
41904;DHT22;27586;51.124;4.182;2023-08-01T02:58:04;16.40;99.90
41904;DHT22;27586;51.124;4.182;2023-08-01T03:00:30;16.30;99.90
41904;DHT22;27586;51.124;4.182;2023-08-01T03:02:57;16.30;99.90
41904;DHT22;27586;51.124;4.182;2023-08-01T03:05:23;16.30;99.90
41904;DHT22;27586;51.124;4.182;2023-08-01T03:07:48;16.30;99.90
41904;DHT22;27586;51.124;4.182;2023-08-01T03:10:14;16.30;99.90
41904;DHT22;27586;51.124;4.182;2023-08-01T03:12:40;16.40;99.90
41904;DHT22;27586;51.124;4.182;2023-08-01T03:15:06;16.50;99.90
41904;DHT22;27586;51.124;4.182;2023-08-01T03:17:34;16.40;99.90
41904;DHT22;27586;51.124;4.182;2023-08-01T03:20:00;16.40;99.90
41904;DHT22;27586;51.124;4.182;2023-08-01T03:22:25;16.40;99.90
41904;DHT22;27586;51.124;4.182;2023-08-01T03:24:51;16.30;99.90
41904;DHT22;27586;51.124;4.182;2023-08-01T03:27:17;16.20;99.90
41904;DHT22;27586;51.124;4.182;2023-08-01T03:29:43;16.20;99.90
41904;DHT22;27586;51.124;4.182;2023-08-01T03:32:08;16.20;99.90
41904;DHT22;27586;51.124;4.182;2023-08-01T03:34:34;16.20;99.90
41904;DHT22;27586;51.124;4.182;2023-08-01T03:37:00;16.20;99.90
41904;DHT22;27586;51.124;4.182;2023-08-01T03:39:25;16.20;99.90
41904;DHT22;27586;51.124;4.182;2023-08-01T03:41:51;16.30;99.90
41904;DHT22;27586;51.124;4.182;2023-08-01T03:44:17;16.30;99.90
41904;DHT22;27586;51.124;4.182;2023-08-01T03:46:43;16.30;99.90
41904;DHT22;27586;51.124;4.182;2023-08-01T03:49:08;16.30;99.90
41904;DHT22;27586;51.124;4.182;2023-08-01T03:51:34;16.40;99.90
41904;DHT22;27586;51.124;4.182;2023-08-01T03:54:00;16.30;99.90
41904;DHT22;27586;51.124;4.182;2023-08-01T03:56:26;16.20;99.90
41904;DHT22;27586;51.124;4.182;2023-08-01T03:58:53;16.20;99.90
41904;DHT22;27586;51.124;4.182;2023-08-01T04:01:18;16.30;99.90
41904;DHT22;27586;51.124;4.182;2023-08-01T04:03:45;16.20;99.90
41904;DHT22;27586;51.124;4.182;2023-08-01T04:06:10;16.20;99.90
41904;DHT22;27586;51.124;4.182;2023-08-01T04:08:40;16.20;99.90
41904;DHT22;27586;51.124;4.182;2023-08-01T04:11:06;16.20;99.90
41904;DHT22;27586;51.124;4.182;2023-08-01T04:13:31;16.10;99.90
41904;DHT22;27586;51.124;4.182;2023-08-01T04:15:57;16.20;99.90
41904;DHT22;27586;51.124;4.182;2023-08-01T04:18:23;16.10;99.90
41904;DHT22;27586;51.124;4.182;2023-08-01T04:20:48;16.20;99.90
41904;DHT22;27586;51.124;4.182;2023-08-01T04:23:14;16.20;99.90
41904;DHT22;27586;51.124;4.182;2023-08-01T04:25:40;16.30;99.90
41904;DHT22;27586;51.124;4.182;2023-08-01T04:28:06;16.30;99.90
41904;DHT22;27586;51.124;4.182;2023-08-01T04:30:32;16.30;99.90
41904;DHT22;27586;51.124;4.182;2023-08-01T04:32:58;16.30;99.90
41904;DHT22;27586;51.124;4.182;2023-08-01T04:35:24;16.30;99.90
41904;DHT22;27586;51.124;4.182;2023-08-01T04:37:49;16.30;99.90
41904;DHT22;27586;51.124;4.182;2023-08-01T04:40:15;16.10;99.90
41904;DHT22;27586;51.124;4.182;2023-08-01T04:42:41;16.20;99.90
41904;DHT22;27586;51.124;4.182;2023-08-01T04:45:07;16.30;99.90
41904;DHT22;27586;51.124;4.182;2023-08-01T04:47:33;16.40;99.90
41904;DHT22;27586;51.124;4.182;2023-08-01T04:49:58;16.40;99.90
41904;DHT22;27586;51.124;4.182;2023-08-01T04:52:24;16.40;99.90
41904;DHT22;27586;51.124;4.182;2023-08-01T04:54:49;16.40;99.90
41904;DHT22;27586;51.124;4.182;2023-08-01T04:57:15;16.40;99.90
41904;DHT22;27586;51.124;4.182;2023-08-01T04:59:41;16.50;99.90
41904;DHT22;27586;51.124;4.182;2023-08-01T05:02:06;16.50;99.90
41904;DHT22;27586;51.124;4.182;2023-08-01T05:04:32;16.50;99.90
41904;DHT22;27586;51.124;4.182;2023-08-01T05:06:57;16.60;99.90
41904;DHT22;27586;51.124;4.182;2023-08-01T05:09:23;16.50;99.90
41904;DHT22;27586;51.124;4.182;2023-08-01T05:11:49;16.50;99.90
41904;DHT22;27586;51.124;4.182;2023-08-01T05:14:14;16.50;99.90
41904;DHT22;27586;51.124;4.182;2023-08-01T05:16:40;16.40;99.90
41904;DHT22;27586;51.124;4.182;2023-08-01T05:19:05;16.50;99.90
41904;DHT22;27586;51.124;4.182;2023-08-01T05:21:31;16.60;99.90
41904;DHT22;27586;51.124;4.182;2023-08-01T05:23:57;16.60;99.90
41904;DHT22;27586;51.124;4.182;2023-08-01T05:26:22;16.60;99.90
41904;DHT22;27586;51.124;4.182;2023-08-01T05:28:48;16.70;99.90
41904;DHT22;27586;51.124;4.182;2023-08-01T05:31:14;16.70;99.90
41904;DHT22;27586;51.124;4.182;2023-08-01T05:33:39;16.80;99.90
41904;DHT22;27586;51.124;4.182;2023-08-01T05:36:05;16.80;99.90
41904;DHT22;27586;51.124;4.182;2023-08-01T05:38:30;16.90;99.90
41904;DHT22;27586;51.124;4.182;2023-08-01T05:40:56;17.00;99.90
41904;DHT22;27586;51.124;4.182;2023-08-01T05:43:22;17.00;99.90
41904;DHT22;27586;51.124;4.182;2023-08-01T05:45:47;17.00;99.90
41904;DHT22;27586;51.124;4.182;2023-08-01T05:48:13;17.00;99.90
41904;DHT22;27586;51.124;4.182;2023-08-01T05:50:39;16.80;99.90
41904;DHT22;27586;51.124;4.182;2023-08-01T05:53:04;16.80;99.90
41904;DHT22;27586;51.124;4.182;2023-08-01T05:55:31;16.70;99.90
41904;DHT22;27586;51.124;4.182;2023-08-01T05:57:56;16.80;99.90
41904;DHT22;27586;51.124;4.182;2023-08-01T06:00:22;16.90;99.90
41904;DHT22;27586;51.124;4.182;2023-08-01T06:02:48;17.00;99.90
41904;DHT22;27586;51.124;4.182;2023-08-01T06:05:14;16.90;99.90
41904;DHT22;27586;51.124;4.182;2023-08-01T06:07:40;16.90;99.90
41904;DHT22;27586;51.124;4.182;2023-08-01T06:10:07;16.90;99.90
41904;DHT22;27586;51.124;4.182;2023-08-01T06:12:33;16.90;99.90
41904;DHT22;27586;51.124;4.182;2023-08-01T06:14:58;17.00;99.90
41904;DHT22;27586;51.124;4.182;2023-08-01T06:17:24;16.90;99.90
41904;DHT22;27586;51.124;4.182;2023-08-01T06:19:49;16.90;99.90
41904;DHT22;27586;51.124;4.182;2023-08-01T06:22:16;16.90;99.90
41904;DHT22;27586;51.124;4.182;2023-08-01T06:24:42;16.90;99.90
41904;DHT22;27586;51.124;4.182;2023-08-01T06:27:07;16.90;99.90
41904;DHT22;27586;51.124;4.182;2023-08-01T06:29:33;16.90;99.90
41904;DHT22;27586;51.124;4.182;2023-08-01T06:31:59;16.90;99.90
41904;DHT22;27586;51.124;4.182;2023-08-01T06:34:24;16.90;99.90
41904;DHT22;27586;51.124;4.182;2023-08-01T06:36:50;17.00;99.90
41904;DHT22;27586;51.124;4.182;2023-08-01T06:39:16;17.10;99.90
41904;DHT22;27586;51.124;4.182;2023-08-01T06:41:42;17.00;99.90
41904;DHT22;27586;51.124;4.182;2023-08-01T06:44:07;17.10;99.90
41904;DHT22;27586;51.124;4.182;2023-08-01T06:46:33;17.20;99.90
41904;DHT22;27586;51.124;4.182;2023-08-01T06:48:58;17.20;99.90
41904;DHT22;27586;51.124;4.182;2023-08-01T06:51:24;17.30;99.90
41904;DHT22;27586;51.124;4.182;2023-08-01T06:53:50;17.30;99.90
41904;DHT22;27586;51.124;4.182;2023-08-01T06:56:15;17.20;99.90
41904;DHT22;27586;51.124;4.182;2023-08-01T06:58:41;17.30;99.90
41904;DHT22;27586;51.124;4.182;2023-08-01T07:01:07;17.20;99.90
41904;DHT22;27586;51.124;4.182;2023-08-01T07:03:32;17.30;99.90
41904;DHT22;27586;51.124;4.182;2023-08-01T07:05:58;17.30;99.90
41904;DHT22;27586;51.124;4.182;2023-08-01T07:08:24;17.30;99.90
41904;DHT22;27586;51.124;4.182;2023-08-01T07:10:49;17.40;99.90
41904;DHT22;27586;51.124;4.182;2023-08-01T07:13:15;17.40;99.90
41904;DHT22;27586;51.124;4.182;2023-08-01T07:15:41;17.40;99.90
41904;DHT22;27586;51.124;4.182;2023-08-01T07:18:07;17.50;99.90
41904;DHT22;27586;51.124;4.182;2023-08-01T07:20:33;17.40;99.90
41904;DHT22;27586;51.124;4.182;2023-08-01T07:22:59;17.50;99.90
41904;DHT22;27586;51.124;4.182;2023-08-01T07:25:24;17.40;99.90
41904;DHT22;27586;51.124;4.182;2023-08-01T07:27:50;17.50;99.90
41904;DHT22;27586;51.124;4.182;2023-08-01T07:30:16;17.40;99.90
41904;DHT22;27586;51.124;4.182;2023-08-01T07:32:42;17.30;99.90
41904;DHT22;27586;51.124;4.182;2023-08-01T07:35:08;17.40;99.90
41904;DHT22;27586;51.124;4.182;2023-08-01T07:37:34;17.50;99.90
41904;DHT22;27586;51.124;4.182;2023-08-01T07:40:00;17.60;99.90
41904;DHT22;27586;51.124;4.182;2023-08-01T07:42:25;17.50;99.90
41904;DHT22;27586;51.124;4.182;2023-08-01T07:44:51;17.60;99.90
41904;DHT22;27586;51.124;4.182;2023-08-01T07:47:17;17.60;99.90
41904;DHT22;27586;51.124;4.182;2023-08-01T07:49:42;17.60;99.90
41904;DHT22;27586;51.124;4.182;2023-08-01T07:52:08;17.70;99.90
41904;DHT22;27586;51.124;4.182;2023-08-01T07:54:34;17.70;99.90
41904;DHT22;27586;51.124;4.182;2023-08-01T07:56:59;17.80;99.90
41904;DHT22;27586;51.124;4.182;2023-08-01T07:59:25;17.80;99.90
41904;DHT22;27586;51.124;4.182;2023-08-01T08:01:51;17.80;99.90
41904;DHT22;27586;51.124;4.182;2023-08-01T08:04:18;17.90;99.90
41904;DHT22;27586;51.124;4.182;2023-08-01T08:06:44;18.30;99.90
41904;DHT22;27586;51.124;4.182;2023-08-01T08:09:09;18.50;99.90
41904;DHT22;27586;51.124;4.182;2023-08-01T08:11:35;18.70;99.90
41904;DHT22;27586;51.124;4.182;2023-08-01T08:14:01;18.70;99.90
41904;DHT22;27586;51.124;4.182;2023-08-01T08:16:26;18.70;99.90
41904;DHT22;27586;51.124;4.182;2023-08-01T08:18:52;18.90;99.90
41904;DHT22;27586;51.124;4.182;2023-08-01T08:21:17;18.90;99.90
41904;DHT22;27586;51.124;4.182;2023-08-01T08:23:43;19.20;99.90
41904;DHT22;27586;51.124;4.182;2023-08-01T08:26:09;19.30;99.90
41904;DHT22;27586;51.124;4.182;2023-08-01T08:28:34;19.40;99.90
41904;DHT22;27586;51.124;4.182;2023-08-01T08:31:01;19.40;99.90
41904;DHT22;27586;51.124;4.182;2023-08-01T08:33:30;19.60;99.90
41904;DHT22;27586;51.124;4.182;2023-08-01T08:35:55;19.60;99.90
41904;DHT22;27586;51.124;4.182;2023-08-01T08:38:21;19.70;99.90
41904;DHT22;27586;51.124;4.182;2023-08-01T08:41:22;20.00;99.90
41904;DHT22;27586;51.124;4.182;2023-08-01T08:43:49;20.00;99.90
41904;DHT22;27586;51.124;4.182;2023-08-01T08:46:16;20.10;99.90
41904;DHT22;27586;51.124;4.182;2023-08-01T08:48:42;20.00;99.90
41904;DHT22;27586;51.124;4.182;2023-08-01T08:51:10;19.90;99.90
41904;DHT22;27586;51.124;4.182;2023-08-01T08:53:36;20.00;99.90
41904;DHT22;27586;51.124;4.182;2023-08-01T08:56:02;19.90;99.90
41904;DHT22;27586;51.124;4.182;2023-08-01T08:58:31;19.90;99.90
41904;DHT22;27586;51.124;4.182;2023-08-01T09:01:00;20.00;99.90
41904;DHT22;27586;51.124;4.182;2023-08-01T09:03:28;19.90;99.90
41904;DHT22;27586;51.124;4.182;2023-08-01T09:06:17;19.80;99.90
41904;DHT22;27586;51.124;4.182;2023-08-01T09:08:51;19.80;99.90
41904;DHT22;27586;51.124;4.182;2023-08-01T09:11:19;19.40;99.90
41904;DHT22;27586;51.124;4.182;2023-08-01T09:13:45;19.40;99.90
41904;DHT22;27586;51.124;4.182;2023-08-01T09:16:12;19.30;99.90
41904;DHT22;27586;51.124;4.182;2023-08-01T09:18:52;19.10;99.90
41904;DHT22;27586;51.124;4.182;2023-08-01T09:21:22;19.10;99.90
41904;DHT22;27586;51.124;4.182;2023-08-01T09:23:48;19.20;99.90
41904;DHT22;27586;51.124;4.182;2023-08-01T09:26:19;19.40;99.90
41904;DHT22;27586;51.124;4.182;2023-08-01T09:28:56;19.50;99.90
41904;DHT22;27586;51.124;4.182;2023-08-01T09:31:33;19.80;99.90
41904;DHT22;27586;51.124;4.182;2023-08-01T09:34:03;20.10;99.90
41904;DHT22;27586;51.124;4.182;2023-08-01T09:36:35;20.40;99.90
41904;DHT22;27586;51.124;4.182;2023-08-01T09:39:02;20.80;99.90
41904;DHT22;27586;51.124;4.182;2023-08-01T09:41:31;20.90;99.90
41904;DHT22;27586;51.124;4.182;2023-08-01T09:43:57;21.00;99.90
41904;DHT22;27586;51.124;4.182;2023-08-01T09:46:24;20.90;99.90
41904;DHT22;27586;51.124;4.182;2023-08-01T09:48:50;20.60;99.90
41904;DHT22;27586;51.124;4.182;2023-08-01T09:51:17;20.40;99.90
41904;DHT22;27586;51.124;4.182;2023-08-01T09:53:56;20.20;99.90
41904;DHT22;27586;51.124;4.182;2023-08-01T09:56:27;20.00;99.90
41904;DHT22;27586;51.124;4.182;2023-08-01T09:58:54;20.00;99.90
41904;DHT22;27586;51.124;4.182;2023-08-01T10:01:24;20.00;99.90
41904;DHT22;27586;51.124;4.182;2023-08-01T10:03:52;20.00;99.90
41904;DHT22;27586;51.124;4.182;2023-08-01T10:06:20;20.00;99.90
41904;DHT22;27586;51.124;4.182;2023-08-01T10:08:46;20.00;99.90
41904;DHT22;27586;51.124;4.182;2023-08-01T10:11:14;20.00;99.90
41904;DHT22;27586;51.124;4.182;2023-08-01T10:13:42;20.10;99.90
41904;DHT22;27586;51.124;4.182;2023-08-01T10:16:09;20.10;99.90
41904;DHT22;27586;51.124;4.182;2023-08-01T10:18:34;19.90;99.90
41904;DHT22;27586;51.124;4.182;2023-08-01T10:21:04;19.90;99.90
41904;DHT22;27586;51.124;4.182;2023-08-01T10:23:32;19.70;99.90
41904;DHT22;27586;51.124;4.182;2023-08-01T10:25:59;19.70;99.90
41904;DHT22;27586;51.124;4.182;2023-08-01T10:28:39;19.70;99.90
41904;DHT22;27586;51.124;4.182;2023-08-01T10:33:38;19.80;99.90
41904;DHT22;27586;51.124;4.182;2023-08-01T10:36:16;19.90;99.90
41904;DHT22;27586;51.124;4.182;2023-08-01T10:38:56;19.90;99.90
41904;DHT22;27586;51.124;4.182;2023-08-01T10:41:30;19.90;99.90
41904;DHT22;27586;51.124;4.182;2023-08-01T10:44:13;20.00;99.90
41904;DHT22;27586;51.124;4.182;2023-08-01T10:46:55;20.10;99.90
41904;DHT22;27586;51.124;4.182;2023-08-01T10:49:42;20.10;99.90
41904;DHT22;27586;51.124;4.182;2023-08-01T10:54:46;20.50;99.90
41904;DHT22;27586;51.124;4.182;2023-08-01T10:57:18;20.30;99.90
41904;DHT22;27586;51.124;4.182;2023-08-01T10:59:44;20.20;99.90
41904;DHT22;27586;51.124;4.182;2023-08-01T11:02:10;20.40;99.90
41904;DHT22;27586;51.124;4.182;2023-08-01T11:04:36;20.50;99.90
41904;DHT22;27586;51.124;4.182;2023-08-01T11:07:04;20.70;99.90
41904;DHT22;27586;51.124;4.182;2023-08-01T11:09:30;20.80;99.90
41904;DHT22;27586;51.124;4.182;2023-08-01T11:11:58;20.70;99.90
41904;DHT22;27586;51.124;4.182;2023-08-01T11:14:28;20.70;99.90
41904;DHT22;27586;51.124;4.182;2023-08-01T11:16:55;20.80;99.90
41904;DHT22;27586;51.124;4.182;2023-08-01T11:19:28;20.80;99.90
41904;DHT22;27586;51.124;4.182;2023-08-01T11:21:55;20.70;99.90
41904;DHT22;27586;51.124;4.182;2023-08-01T11:24:25;20.70;99.90
41904;DHT22;27586;51.124;4.182;2023-08-01T11:26:53;20.80;99.90
41904;DHT22;27586;51.124;4.182;2023-08-01T11:29:20;20.80;99.90
41904;DHT22;27586;51.124;4.182;2023-08-01T11:31:56;20.80;99.90
41904;DHT22;27586;51.124;4.182;2023-08-01T11:34:23;20.70;99.90
41904;DHT22;27586;51.124;4.182;2023-08-01T11:36:49;20.60;99.90
41904;DHT22;27586;51.124;4.182;2023-08-01T11:39:16;20.50;99.90
41904;DHT22;27586;51.124;4.182;2023-08-01T11:41:45;20.40;99.90
41904;DHT22;27586;51.124;4.182;2023-08-01T11:44:11;20.30;99.90
41904;DHT22;27586;51.124;4.182;2023-08-01T11:46:38;20.40;99.90
41904;DHT22;27586;51.124;4.182;2023-08-01T11:49:06;20.50;99.90
41904;DHT22;27586;51.124;4.182;2023-08-01T11:51:39;20.70;99.90
41904;DHT22;27586;51.124;4.182;2023-08-01T11:54:04;20.80;99.90
41904;DHT22;27586;51.124;4.182;2023-08-01T11:56:31;21.00;99.90
41904;DHT22;27586;51.124;4.182;2023-08-01T11:58:57;21.10;99.90
41904;DHT22;27586;51.124;4.182;2023-08-01T12:01:24;20.90;99.90
41904;DHT22;27586;51.124;4.182;2023-08-01T12:03:54;20.70;99.90
41904;DHT22;27586;51.124;4.182;2023-08-01T12:06:22;20.60;99.90
41904;DHT22;27586;51.124;4.182;2023-08-01T12:08:50;20.50;99.90
41904;DHT22;27586;51.124;4.182;2023-08-01T12:11:26;20.30;99.90
41904;DHT22;27586;51.124;4.182;2023-08-01T12:16:30;20.20;99.90
41904;DHT22;27586;51.124;4.182;2023-08-01T12:18:57;20.30;99.90
41904;DHT22;27586;51.124;4.182;2023-08-01T12:21:23;20.30;99.90
41904;DHT22;27586;51.124;4.182;2023-08-01T12:23:48;20.30;99.90
41904;DHT22;27586;51.124;4.182;2023-08-01T12:26:14;20.30;99.90
41904;DHT22;27586;51.124;4.182;2023-08-01T12:28:40;20.50;99.90
41904;DHT22;27586;51.124;4.182;2023-08-01T12:31:05;20.80;99.90
41904;DHT22;27586;51.124;4.182;2023-08-01T12:33:32;20.90;99.90
41904;DHT22;27586;51.124;4.182;2023-08-01T12:36:02;20.90;99.90
41904;DHT22;27586;51.124;4.182;2023-08-01T12:38:27;20.70;99.90
41904;DHT22;27586;51.124;4.182;2023-08-01T12:40:53;20.60;99.90
41904;DHT22;27586;51.124;4.182;2023-08-01T12:43:19;20.70;99.90
41904;DHT22;27586;51.124;4.182;2023-08-01T12:45:46;20.50;99.90
41904;DHT22;27586;51.124;4.182;2023-08-01T12:48:11;20.30;99.90
41904;DHT22;27586;51.124;4.182;2023-08-01T12:50:37;20.00;99.90
41904;DHT22;27586;51.124;4.182;2023-08-01T12:53:03;19.90;99.90
41904;DHT22;27586;51.124;4.182;2023-08-01T12:55:28;19.90;99.90
41904;DHT22;27586;51.124;4.182;2023-08-01T12:57:54;19.90;99.90
41904;DHT22;27586;51.124;4.182;2023-08-01T13:00:20;20.30;99.90
41904;DHT22;27586;51.124;4.182;2023-08-01T13:02:45;20.70;99.90
41904;DHT22;27586;51.124;4.182;2023-08-01T13:05:12;21.00;99.90
41904;DHT22;27586;51.124;4.182;2023-08-01T13:07:38;21.00;99.90
41904;DHT22;27586;51.124;4.182;2023-08-01T13:10:04;21.20;99.90
41904;DHT22;27586;51.124;4.182;2023-08-01T13:12:29;21.30;99.90
41904;DHT22;27586;51.124;4.182;2023-08-01T13:14:55;21.10;99.90
41904;DHT22;27586;51.124;4.182;2023-08-01T13:17:21;20.90;99.90
41904;DHT22;27586;51.124;4.182;2023-08-01T13:19:46;20.80;99.90
41904;DHT22;27586;51.124;4.182;2023-08-01T13:22:12;20.50;99.90
41904;DHT22;27586;51.124;4.182;2023-08-01T13:24:38;20.30;99.90
41904;DHT22;27586;51.124;4.182;2023-08-01T13:27:04;20.20;99.90
41904;DHT22;27586;51.124;4.182;2023-08-01T13:29:30;20.00;99.90
41904;DHT22;27586;51.124;4.182;2023-08-01T13:31:56;19.90;99.90
41904;DHT22;27586;51.124;4.182;2023-08-01T13:34:21;19.80;99.90
41904;DHT22;27586;51.124;4.182;2023-08-01T13:36:47;19.70;99.90
41904;DHT22;27586;51.124;4.182;2023-08-01T13:39:13;19.80;99.90
41904;DHT22;27586;51.124;4.182;2023-08-01T13:41:38;19.90;99.90
41904;DHT22;27586;51.124;4.182;2023-08-01T13:44:04;20.00;99.90
41904;DHT22;27586;51.124;4.182;2023-08-01T13:46:30;20.10;99.90
41904;DHT22;27586;51.124;4.182;2023-08-01T13:48:56;20.30;99.90
41904;DHT22;27586;51.124;4.182;2023-08-01T13:51:22;20.20;99.90
41904;DHT22;27586;51.124;4.182;2023-08-01T13:53:47;20.00;99.90
41904;DHT22;27586;51.124;4.182;2023-08-01T13:56:13;19.80;99.90
41904;DHT22;27586;51.124;4.182;2023-08-01T13:58:39;19.70;99.90
41904;DHT22;27586;51.124;4.182;2023-08-01T14:01:06;19.60;99.90
41904;DHT22;27586;51.124;4.182;2023-08-01T14:03:36;19.50;99.90
41904;DHT22;27586;51.124;4.182;2023-08-01T14:06:12;19.40;99.90
41904;DHT22;27586;51.124;4.182;2023-08-01T14:08:39;19.30;99.90
41904;DHT22;27586;51.124;4.182;2023-08-01T14:11:07;19.20;99.90
41904;DHT22;27586;51.124;4.182;2023-08-01T14:13:33;19.10;99.90
41904;DHT22;27586;51.124;4.182;2023-08-01T14:16:00;18.70;99.90
41904;DHT22;27586;51.124;4.182;2023-08-01T14:18:30;18.60;99.90
41904;DHT22;27586;51.124;4.182;2023-08-01T14:20:56;18.50;99.90
41904;DHT22;27586;51.124;4.182;2023-08-01T14:23:21;18.50;99.90
41904;DHT22;27586;51.124;4.182;2023-08-01T14:25:48;18.60;99.90
41904;DHT22;27586;51.124;4.182;2023-08-01T14:28:14;18.70;99.90
41904;DHT22;27586;51.124;4.182;2023-08-01T14:30:40;18.70;99.90
41904;DHT22;27586;51.124;4.182;2023-08-01T14:33:07;18.70;99.90
41904;DHT22;27586;51.124;4.182;2023-08-01T14:35:37;18.60;99.90
41904;DHT22;27586;51.124;4.182;2023-08-01T14:38:03;18.50;99.90
41904;DHT22;27586;51.124;4.182;2023-08-01T14:40:29;18.60;99.90
41904;DHT22;27586;51.124;4.182;2023-08-01T14:42:55;18.60;99.90
41904;DHT22;27586;51.124;4.182;2023-08-01T14:45:21;18.50;99.90
41904;DHT22;27586;51.124;4.182;2023-08-01T14:47:47;18.40;99.90
41904;DHT22;27586;51.124;4.182;2023-08-01T14:50:14;18.50;99.90
41904;DHT22;27586;51.124;4.182;2023-08-01T14:52:40;18.60;99.90
41904;DHT22;27586;51.124;4.182;2023-08-01T14:55:06;18.60;99.90
41904;DHT22;27586;51.124;4.182;2023-08-01T14:57:32;18.70;99.90
41904;DHT22;27586;51.124;4.182;2023-08-01T14:59:58;18.80;99.90
41904;DHT22;27586;51.124;4.182;2023-08-01T15:02:25;19.00;99.90
41904;DHT22;27586;51.124;4.182;2023-08-01T15:04:55;18.90;99.90
41904;DHT22;27586;51.124;4.182;2023-08-01T15:07:25;19.10;99.90
41904;DHT22;27586;51.124;4.182;2023-08-01T15:09:51;19.10;99.90
41904;DHT22;27586;51.124;4.182;2023-08-01T15:12:18;19.20;99.90
41904;DHT22;27586;51.124;4.182;2023-08-01T15:14:50;19.20;99.90
41904;DHT22;27586;51.124;4.182;2023-08-01T15:17:16;19.20;99.90
41904;DHT22;27586;51.124;4.182;2023-08-01T15:19:42;19.30;99.90
41904;DHT22;27586;51.124;4.182;2023-08-01T15:22:09;19.40;99.90
41904;DHT22;27586;51.124;4.182;2023-08-01T15:24:34;19.50;99.90
41904;DHT22;27586;51.124;4.182;2023-08-01T15:27:00;19.60;99.90
41904;DHT22;27586;51.124;4.182;2023-08-01T15:29:26;19.70;99.90
41904;DHT22;27586;51.124;4.182;2023-08-01T15:31:52;19.70;99.90
41904;DHT22;27586;51.124;4.182;2023-08-01T15:34:18;19.70;99.90
41904;DHT22;27586;51.124;4.182;2023-08-01T15:36:47;19.70;99.90